sensor_id;sensor_type;location;lat;lon;timestamp;pressure;altitude;pressure_sealevel;temperature;humidity
42451;BME280;28080;51.138;17.170;2024-03-23T01:00:44;99339.10;;;9.82;90.53
42451;BME280;28080;51.138;17.170;2024-03-23T01:10:59;99324.95;;;9.72;91.26
42451;BME280;28080;51.138;17.170;2024-03-23T01:21:24;99311.05;;;9.71;91.41
42451;BME280;28080;51.138;17.170;2024-03-23T01:31:49;99293.30;;;9.75;91.08
42451;BME280;28080;51.138;17.170;2024-03-23T01:41:56;99277.77;;;9.77;90.69
42451;BME280;28080;51.138;17.170;2024-03-23T01:52:21;99251.52;;;9.71;90.70
42451;BME280;28080;51.138;17.170;2024-03-23T02:02:46;99228.60;;;9.55;90.85
42451;BME280;28080;51.138;17.170;2024-03-23T02:13:11;99218.83;;;9.46;91.12
42451;BME280;28080;51.138;17.170;2024-03-23T02:23:19;99207.78;;;9.44;91.04
42451;BME280;28080;51.138;17.170;2024-03-23T02:33:44;99192.17;;;9.45;90.93
42451;BME280;28080;51.138;17.170;2024-03-23T02:44:09;99168.87;;;9.42;90.85
42451;BME280;28080;51.138;17.170;2024-03-23T02:54:17;99165.70;;;9.40;90.78
42451;BME280;28080;51.138;17.170;2024-03-23T03:04:42;99158.36;;;9.40;90.72
42451;BME280;28080;51.138;17.170;2024-03-23T03:14:58;99131.96;;;9.36;90.71
42451;BME280;28080;51.138;17.170;2024-03-23T03:25:23;99120.56;;;9.34;90.67
42451;BME280;28080;51.138;17.170;2024-03-23T03:35:31;99112.08;;;9.38;90.47
42451;BME280;28080;51.138;17.170;2024-03-23T03:45:56;99095.27;;;9.36;90.43
42451;BME280;28080;51.138;17.170;2024-03-23T03:56:21;99084.81;;;9.34;90.52
42451;BME280;28080;51.138;17.170;2024-03-23T04:06:47;99081.64;;;9.35;90.46
42451;BME280;28080;51.138;17.170;2024-03-23T04:17:12;99063.00;;;9.30;91.00
42451;BME280;28080;51.138;17.170;2024-03-23T04:27:33;99068.81;;;9.29;90.73
42451;BME280;28080;51.138;17.170;2024-03-23T04:37:58;99071.09;;;9.33;90.31
42451;BME280;28080;51.138;17.170;2024-03-23T04:48:23;99068.48;;;9.35;89.94
42451;BME280;28080;51.138;17.170;2024-03-23T04:58:48;99054.39;;;9.37;89.63
42451;BME280;28080;51.138;17.170;2024-03-23T05:09:13;99049.39;;;9.34;89.50
42451;BME280;28080;51.138;17.170;2024-03-23T05:19:38;99037.94;;;9.24;90.15
42451;BME280;28080;51.138;17.170;2024-03-23T05:30:03;99034.55;;;9.18;90.41
42451;BME280;28080;51.138;17.170;2024-03-23T05:40:29;99028.52;;;9.20;90.21
42451;BME280;28080;51.138;17.170;2024-03-23T05:50:54;99013.30;;;9.20;90.08
42451;BME280;28080;51.138;17.170;2024-03-23T06:01:20;99004.42;;;9.18;91.04
42451;BME280;28080;51.138;17.170;2024-03-23T06:11:45;98994.90;;;9.14;92.21
42451;BME280;28080;51.138;17.170;2024-03-23T06:22:10;98983.25;;;9.16;92.99
42451;BME280;28080;51.138;17.170;2024-03-23T06:32:35;99002.55;;;9.26;92.76
42451;BME280;28080;51.138;17.170;2024-03-23T06:43:00;99006.10;;;9.39;92.85
42451;BME280;28080;51.138;17.170;2024-03-23T06:53:25;98962.91;;;9.47;93.70
42451;BME280;28080;51.138;17.170;2024-03-23T07:03:50;98940.11;;;9.53;94.08
42451;BME280;28080;51.138;17.170;2024-03-23T07:14:16;98929.11;;;9.75;94.87
42451;BME280;28080;51.138;17.170;2024-03-23T07:24:43;98900.60;;;10.16;94.30
42451;BME280;28080;51.138;17.170;2024-03-23T07:35:09;98876.77;;;10.70;92.15
42451;BME280;28080;51.138;17.170;2024-03-23T07:45:34;98859.48;;;11.20;89.52
42451;BME280;28080;51.138;17.170;2024-03-23T07:56:01;98838.41;;;11.67;86.57
42451;BME280;28080;51.138;17.170;2024-03-23T08:06:26;98805.86;;;12.16;83.42
42451;BME280;28080;51.138;17.170;2024-03-23T08:16:51;98788.77;;;12.45;80.72
42451;BME280;28080;51.138;17.170;2024-03-23T08:27:17;98777.34;;;12.55;79.72
42451;BME280;28080;51.138;17.170;2024-03-23T08:37:41;98758.52;;;12.63;79.28
42451;BME280;28080;51.138;17.170;2024-03-23T08:47:46;98724.27;;;12.93;79.46
42451;BME280;28080;51.138;17.170;2024-03-23T08:58:11;98697.20;;;13.45;76.58
42451;BME280;28080;51.138;17.170;2024-03-23T09:08:37;98682.30;;;13.65;72.86
42451;BME280;28080;51.138;17.170;2024-03-23T09:19:02;98670.21;;;13.58;72.41
42451;BME280;28080;51.138;17.170;2024-03-23T09:29:27;98641.64;;;13.46;71.81
42451;BME280;28080;51.138;17.170;2024-03-23T09:39:52;98622.90;;;13.32;71.78
42451;BME280;28080;51.138;17.170;2024-03-23T09:50:18;98601.18;;;13.22;72.28
42451;BME280;28080;51.138;17.170;2024-03-23T10:00:43;98572.91;;;13.22;73.17
42451;BME280;28080;51.138;17.170;2024-03-23T10:11:18;98545.59;;;13.41;72.93
42451;BME280;28080;51.138;17.170;2024-03-23T10:21:53;98520.78;;;13.61;70.93
42451;BME280;28080;51.138;17.170;2024-03-23T10:32:19;98501.13;;;13.81;70.47
42451;BME280;28080;51.138;17.170;2024-03-23T10:42:26;98490.17;;;14.15;70.59
42451;BME280;28080;51.138;17.170;2024-03-23T10:52:53;98476.34;;;14.54;70.47
42451;BME280;28080;51.138;17.170;2024-03-23T11:03:35;98461.27;;;15.06;69.90
42451;BME280;28080;51.138;17.170;2024-03-23T11:13:43;98437.65;;;15.32;68.90
42451;BME280;28080;51.138;17.170;2024-03-23T11:24:17;98417.93;;;15.41;69.00
42451;BME280;28080;51.138;17.170;2024-03-23T11:34:44;98403.42;;;15.55;68.33
42451;BME280;28080;51.138;17.170;2024-03-23T11:45:11;98386.52;;;15.77;67.08
42451;BME280;28080;51.138;17.170;2024-03-23T11:55:45;98364.96;;;16.14;62.85
42451;BME280;28080;51.138;17.170;2024-03-23T12:06:10;98352.23;;;16.19;58.73
42451;BME280;28080;51.138;17.170;2024-03-23T12:16:35;98370.19;;;16.07;56.01
42451;BME280;28080;51.138;17.170;2024-03-23T12:27:03;98383.34;;;15.86;56.91
42451;BME280;28080;51.138;17.170;2024-03-23T12:37:18;98392.20;;;15.65;57.53
42451;BME280;28080;51.138;17.170;2024-03-23T12:47:23;98384.59;;;15.52;56.87
42451;BME280;28080;51.138;17.170;2024-03-23T12:57:31;98374.95;;;15.37;57.06
42451;BME280;28080;51.138;17.170;2024-03-23T13:07:36;98399.84;;;15.17;56.79
42451;BME280;28080;51.138;17.170;2024-03-23T13:17:54;98433.90;;;14.89;57.06
42451;BME280;28080;51.138;17.170;2024-03-23T13:28:08;98497.92;;;14.06;60.10
42451;BME280;28080;51.138;17.170;2024-03-23T13:38:16;98519.56;;;12.88;65.74
42451;BME280;28080;51.138;17.170;2024-03-23T13:48:38;98542.10;;;12.08;71.26
42451;BME280;28080;51.138;17.170;2024-03-23T13:59:04;98552.38;;;11.53;70.48
42451;BME280;28080;51.138;17.170;2024-03-23T14:09:18;98607.38;;;11.22;70.34
42451;BME280;28080;51.138;17.170;2024-03-23T14:19:46;98649.85;;;10.68;71.89
42451;BME280;28080;51.138;17.170;2024-03-23T14:30:12;98730.37;;;9.94;73.40
42451;BME280;28080;51.138;17.170;2024-03-23T14:40:37;98783.84;;;8.99;75.93
42451;BME280;28080;51.138;17.170;2024-03-23T14:50:45;98821.48;;;8.19;77.29
42451;BME280;28080;51.138;17.170;2024-03-23T15:01:10;98834.42;;;7.64;77.44
42451;BME280;28080;51.138;17.170;2024-03-23T15:11:35;98866.15;;;7.34;76.65
42451;BME280;28080;51.138;17.170;2024-03-23T15:22:00;98883.80;;;7.11;76.72
42451;BME280;28080;51.138;17.170;2024-03-23T15:32:25;98892.24;;;6.89;77.91
42451;BME280;28080;51.138;17.170;2024-03-23T15:42:45;98915.32;;;6.54;78.97
42451;BME280;28080;51.138;17.170;2024-03-23T15:53:10;98971.06;;;6.30;79.38
42451;BME280;28080;51.138;17.170;2024-03-23T16:03:34;99004.06;;;6.11;79.55
42451;BME280;28080;51.138;17.170;2024-03-23T16:14:00;99027.72;;;6.05;78.51
42451;BME280;28080;51.138;17.170;2024-03-23T16:24:24;99030.17;;;5.99;77.95
42451;BME280;28080;51.138;17.170;2024-03-23T16:34:49;99028.23;;;5.91;77.93
42451;BME280;28080;51.138;17.170;2024-03-23T16:45:16;99021.33;;;5.79;76.56
42451;BME280;28080;51.138;17.170;2024-03-23T16:55:41;99016.86;;;5.70;76.61
42451;BME280;28080;51.138;17.170;2024-03-23T17:05:55;99035.66;;;5.63;76.85
42451;BME280;28080;51.138;17.170;2024-03-23T17:16:10;99064.90;;;5.53;76.89
42451;BME280;28080;51.138;17.170;2024-03-23T17:26:36;99075.77;;;5.42;76.91
42451;BME280;28080;51.138;17.170;2024-03-23T17:37:01;99142.74;;;5.32;76.57
42451;BME280;28080;51.138;17.170;2024-03-23T17:47:26;99207.73;;;5.27;74.78
42451;BME280;28080;51.138;17.170;2024-03-23T17:57:51;99221.83;;;5.19;74.69
42451;BME280;28080;51.138;17.170;2024-03-23T18:08:16;99244.02;;;5.13;74.49
42451;BME280;28080;51.138;17.170;2024-03-23T18:18:41;99231.05;;;5.10;74.55
42451;BME280;28080;51.138;17.170;2024-03-23T18:29:06;99246.48;;;5.07;74.76
42451;BME280;28080;51.138;17.170;2024-03-23T18:39:14;99247.02;;;4.97;75.51
42451;BME280;28080;51.138;17.170;2024-03-23T18:49:39;99238.58;;;4.90;76.28
42451;BME280;28080;51.138;17.170;2024-03-23T19:00:05;99235.10;;;4.90;76.66
42451;BME280;28080;51.138;17.170;2024-03-23T19:10:32;99241.16;;;4.96;76.66
42451;BME280;28080;51.138;17.170;2024-03-23T19:20:58;99215.45;;;5.00;76.29
42451;BME280;28080;51.138;17.170;2024-03-23T19:31:23;99213.22;;;4.97;76.06
42451;BME280;28080;51.138;17.170;2024-03-23T19:41:48;99202.48;;;5.06;76.21
42451;BME280;28080;51.138;17.170;2024-03-23T19:52:13;99193.59;;;5.16;76.08
42451;BME280;28080;51.138;17.170;2024-03-23T20:02:38;99171.85;;;5.24;75.84
42451;BME280;28080;51.138;17.170;2024-03-23T20:13:04;99160.94;;;5.29;75.48
42451;BME280;28080;51.138;17.170;2024-03-23T20:23:12;99174.21;;;5.33;75.29
42451;BME280;28080;51.138;17.170;2024-03-23T20:33:37;99171.81;;;5.36;75.38
42451;BME280;28080;51.138;17.170;2024-03-23T20:44:02;99159.82;;;5.37;75.39
42451;BME280;28080;51.138;17.170;2024-03-23T20:54:27;99149.91;;;5.37;75.56
42451;BME280;28080;51.138;17.170;2024-03-23T21:04:52;99143.64;;;5.37;75.59
42451;BME280;28080;51.138;17.170;2024-03-23T21:15:17;99142.18;;;5.36;75.67
42451;BME280;28080;51.138;17.170;2024-03-23T21:25:42;99130.73;;;5.27;75.99
42451;BME280;28080;51.138;17.170;2024-03-23T21:36:08;99133.70;;;5.15;76.47
42451;BME280;28080;51.138;17.170;2024-03-23T21:46:33;99142.10;;;5.04;77.07
42451;BME280;28080;51.138;17.170;2024-03-23T21:56:58;99143.70;;;4.91;77.84
42451;BME280;28080;51.138;17.170;2024-03-23T22:07:23;99141.94;;;4.79;78.56
42451;BME280;28080;51.138;17.170;2024-03-23T22:17:58;99120.66;;;4.76;78.83
42451;BME280;28080;51.138;17.170;2024-03-23T22:28:25;99124.65;;;4.73;78.76
42451;BME280;28080;51.138;17.170;2024-03-23T22:38:51;99126.34;;;4.67;78.91
42451;BME280;28080;51.138;17.170;2024-03-23T22:49:16;99123.93;;;4.64;78.87
42451;BME280;28080;51.138;17.170;2024-03-23T22:59:42;99117.64;;;4.59;78.71
42451;BME280;28080;51.138;17.170;2024-03-23T23:10:08;99117.77;;;4.47;78.80
42451;BME280;28080;51.138;17.170;2024-03-23T23:20:34;99107.59;;;4.34;79.19
42451;BME280;28080;51.138;17.170;2024-03-23T23:30:59;99095.13;;;4.30;79.41
42451;BME280;28080;51.138;17.170;2024-03-23T23:41:08;99092.45;;;4.29;79.47
42451;BME280;28080;51.138;17.170;2024-03-23T23:51:33;99086.11;;;4.31;79.27
